Time;durP1;ratioP1;P1;durP2;ratioP2;P2;SDS_P1;SDS_P2;PMS_P1;PMS_P2;Temp;Humidity;BMP_temperature;BMP_pressure;BME280_temperature;BME280_humidity;BME280_pressure;Samples;Min_cycle;Max_cycle;Signal;HPM_P1;HPM_P2
2023/03/29 00:01:12;;;;;;;;;;;;;;;-0.07;100.00;100622.97;5153896;27;19911;-63
2023/03/29 00:03:38;;;;;;;;;;;;;;;-0.09;100.00;100617.00;5154242;27;19988;-65
2023/03/29 00:06:04;;;;;;;;;;;;;;;-0.06;100.00;100625.50;5154510;27;19911;-65
2023/03/29 00:08:32;;;;;;;;;;;;;;;-0.09;100.00;100627.47;5154839;27;19915;-65
2023/03/29 00:10:59;;;;;;;;;;;;;;;-0.09;100.00;100622.25;5154186;27;20405;-65
2023/03/29 00:13:27;;;;;;;;;;;;;;;-0.07;100.00;100626.44;5153722;27;19911;-65
2023/03/29 00:15:53;;;;;;;;;;;;;;;-0.06;100.00;100629.91;5135372;27;19911;-65
2023/03/29 00:18:18;;;;;;;;;;;;;;;-0.06;100.00;100632.50;5153852;27;19956;-65
2023/03/29 00:20:44;;;;;;;;;;;;;;;-0.04;100.00;100628.84;5153580;27;19918;-65
2023/03/29 00:23:09;;;;;;;;;;;;;;;-0.02;100.00;100629.59;5155577;27;19968;-64
2023/03/29 00:25:34;;;;;;;;;;;;;;;-0.06;100.00;100627.28;5139488;27;19911;-66
2023/03/29 00:28:00;;;;;;;;;;;;;;;-0.08;100.00;100637.00;5157798;27;20381;-64
2023/03/29 00:30:25;;;;;;;;;;;;;;;-0.08;100.00;100634.41;5157693;27;19960;-65
2023/03/29 00:32:51;;;;;;;;;;;;;;;-0.07;100.00;100633.47;5157698;27;19911;-65
2023/03/29 00:35:16;;;;;;;;;;;;;;;-0.05;100.00;100634.19;5157643;27;19911;-65
2023/03/29 00:37:41;;;;;;;;;;;;;;;-0.10;100.00;100631.88;5157561;27;19963;-64
2023/03/29 00:40:09;;;;;;;;;;;;;;;-0.11;100.00;100634.59;5157343;27;19914;-64
2023/03/29 00:42:35;;;;;;;;;;;;;;;-0.09;100.00;100632.72;5157498;27;19915;-65
2023/03/29 00:45:03;;;;;;;;;;;;;;;-0.16;100.00;100628.81;5138882;27;19918;-65
2023/03/29 00:47:35;;;;;;;;;;;;;;;-0.20;100.00;100627.34;5157238;27;19919;-66
2023/03/29 00:50:03;;;;;;;;;;;;;;;-0.16;100.00;100637.50;5138839;27;19911;-66
2023/03/29 00:52:30;;;;;;;;;;;;;;;-0.16;100.00;100644.53;5157034;27;20382;-66
2023/03/29 00:54:58;;;;;;;;;;;;;;;-0.14;100.00;100650.50;5157262;27;19911;-66
2023/03/29 00:57:25;;;;;;;;;;;;;;;-0.13;100.00;100647.78;5157221;27;20350;-63
2023/03/29 00:59:51;;;;;;;;;;;;;;;-0.10;100.00;100657.22;5157202;27;19919;-65
2023/03/29 01:02:20;;;;;;;;;;;;;;;-0.10;100.00;100659.84;5157109;27;19912;-65
2023/03/29 01:04:56;;;;;;;;;;;;;;;-0.10;100.00;100665.91;5156825;27;19911;-66
2023/03/29 01:07:27;;;;;;;;;;;;;;;-0.07;100.00;100654.41;5157004;27;19918;-65
2023/03/29 01:10:25;;;;;;;;;;;;;;;-0.09;100.00;100635.34;5157051;27;20005;-65
2023/03/29 01:12:55;;;;;;;;;;;;;;;-0.12;100.00;100632.91;5121691;27;20346;-65
2023/03/29 01:15:25;;;;;;;;;;;;;;;-0.14;100.00;100632.16;5156539;27;19930;-66
2023/03/29 01:17:52;;;;;;;;;;;;;;;-0.22;100.00;100629.22;5156971;27;19915;-65
2023/03/29 01:20:23;;;;;;;;;;;;;;;-0.24;100.00;100637.16;5156559;27;19911;-65
2023/03/29 01:23:07;;;;;;;;;;;;;;;-0.27;100.00;100644.38;5156641;27;20034;-68
2023/03/29 01:25:44;;;;;;;;;;;;;;;-0.23;100.00;100653.72;5156346;27;19958;-64
2023/03/29 01:28:13;;;;;;;;;;;;;;;-0.18;100.00;100654.25;5156722;27;19911;-66
2023/03/29 01:30:45;;;;;;;;;;;;;;;-0.19;100.00;100645.56;5156804;27;19998;-65
2023/03/29 01:33:22;;;;;;;;;;;;;;;-0.17;100.00;100666.41;5156205;27;19922;-64
2023/03/29 01:35:56;;;;;;;;;;;;;;;-0.14;100.00;100664.44;5155713;27;19911;-65
2023/03/29 01:38:44;;;;;;;;;;;;;;;-0.12;100.00;100661.72;5156507;27;19957;-66
2023/03/29 01:41:11;;;;;;;;;;;;;;;-0.11;100.00;100661.63;5147483;27;19925;-66
2023/03/29 01:43:58;;;;;;;;;;;;;;;-0.14;100.00;100663.59;5156203;27;19922;-65
2023/03/29 01:46:30;;;;;;;;;;;;;;;-0.19;100.00;100666.50;5155964;27;20443;-66
2023/03/29 01:49:02;;;;;;;;;;;;;;;-0.18;100.00;100669.94;5156339;27;19952;-65
2023/03/29 01:51:39;;;;;;;;;;;;;;;-0.17;100.00;100679.50;5156205;27;19917;-64
2023/03/29 01:54:12;;;;;;;;;;;;;;;-0.27;100.00;100662.69;5156171;27;19911;-65
2023/03/29 01:56:39;;;;;;;;;;;;;;;-0.24;100.00;100660.72;5155955;27;20070;-64
2023/03/29 01:59:08;;;;;;;;;;;;;;;-0.24;100.00;100667.72;5155843;27;19915;-64
2023/03/29 02:01:37;;;;;;;;;;;;;;;-0.25;100.00;100666.03;5155939;27;19911;-65
2023/03/29 02:04:03;;;;;;;;;;;;;;;-0.24;100.00;100659.88;5156144;27;19956;-64
2023/03/29 02:06:30;;;;;;;;;;;;;;;-0.22;100.00;100644.91;5155847;27;19955;-65
2023/03/29 02:08:56;;;;;;;;;;;;;;;-0.23;100.00;100649.31;5155841;27;19958;-65
2023/03/29 02:11:23;;;;;;;;;;;;;;;-0.29;100.00;100643.59;5155772;27;20322;-64
2023/03/29 02:13:48;;;;;;;;;;;;;;;-0.28;100.00;100640.91;5155788;27;19917;-66
2023/03/29 02:16:14;;;;;;;;;;;;;;;-0.25;100.00;100639.88;5155740;27;20002;-65
2023/03/29 02:18:43;;;;;;;;;;;;;;;-0.28;100.00;100640.06;5155660;27;20422;-65
2023/03/29 02:21:13;;;;;;;;;;;;;;;-0.29;100.00;100627.91;5155346;27;19945;-65
2023/03/29 02:23:39;;;;;;;;;;;;;;;-0.34;100.00;100626.41;5155396;27;19911;-65
2023/03/29 02:26:05;;;;;;;;;;;;;;;-0.34;100.00;100615.09;5155252;27;19962;-66
2023/03/29 02:28:32;;;;;;;;;;;;;;;-0.37;100.00;100618.75;5155590;27;19911;-67
2023/03/29 02:31:17;;;;;;;;;;;;;;;-0.38;100.00;100627.53;5155513;27;19918;-67
2023/03/29 02:33:50;;;;;;;;;;;;;;;-0.37;100.00;100638.84;5155445;27;20297;-69
2023/03/29 02:36:22;;;;;;;;;;;;;;;-0.34;100.00;100636.88;5155410;27;20278;-68
2023/03/29 02:38:48;;;;;;;;;;;;;;;-0.29;100.00;100643.59;5155396;27;19918;-66
2023/03/29 02:41:15;;;;;;;;;;;;;;;-0.26;100.00;100636.41;5155076;27;19915;-65
2023/03/29 02:43:41;;;;;;;;;;;;;;;-0.20;100.00;100640.41;5155207;27;19954;-67
2023/03/29 02:46:06;;;;;;;;;;;;;;;-0.21;100.00;100638.75;5135567;27;19911;-65
2023/03/29 02:48:34;;;;;;;;;;;;;;;-0.22;100.00;100644.91;5155045;27;20002;-64
2023/03/29 02:51:01;;;;;;;;;;;;;;;-0.31;100.00;100647.16;5154952;27;19911;-65
2023/03/29 02:53:38;;;;;;;;;;;;;;;-0.31;100.00;100649.75;5154862;27;19911;-66
2023/03/29 02:56:04;;;;;;;;;;;;;;;-0.24;100.00;100659.88;5154917;27;19911;-64
2023/03/29 02:58:30;;;;;;;;;;;;;;;-0.20;100.00;100656.13;5154910;27;19917;-65
2023/03/29 03:00:57;;;;;;;;;;;;;;;-0.19;100.00;100658.66;5135957;27;20277;-65
2023/03/29 03:03:22;;;;;;;;;;;;;;;-0.16;100.00;100666.31;5154653;27;19911;-66
2023/03/29 03:05:48;;;;;;;;;;;;;;;-0.17;100.00;100663.78;5154750;27;20303;-66
2023/03/29 03:08:13;;;;;;;;;;;;;;;-0.16;100.00;100673.31;5154722;27;20382;-65
2023/03/29 03:10:39;;;;;;;;;;;;;;;-0.14;100.00;100667.03;5154903;27;19918;-64
2023/03/29 03:13:05;;;;;;;;;;;;;;;-0.14;100.00;100674.91;5154870;27;20420;-64
2023/03/29 03:15:34;;;;;;;;;;;;;;;-0.16;100.00;100681.16;5155072;27;20009;-65
2023/03/29 03:18:00;;;;;;;;;;;;;;;-0.10;100.00;100686.00;5154807;27;20374;-65
2023/03/29 03:20:26;;;;;;;;;;;;;;;-0.08;100.00;100692.00;5154654;27;19918;-65
2023/03/29 03:22:51;;;;;;;;;;;;;;;-0.13;100.00;100692.28;5154983;27;19918;-65
2023/03/29 03:25:19;;;;;;;;;;;;;;;-0.09;100.00;100695.53;5154651;27;20068;-65
2023/03/29 03:27:45;;;;;;;;;;;;;;;-0.07;100.00;100701.53;5136061;27;19911;-66
2023/03/29 03:30:10;;;;;;;;;;;;;;;-0.07;100.00;100707.59;5154247;27;19915;-65
2023/03/29 03:32:36;;;;;;;;;;;;;;;-0.06;100.00;100711.06;5153980;27;19911;-65
2023/03/29 03:35:02;;;;;;;;;;;;;;;-0.09;100.00;100719.94;5154347;27;19911;-64
2023/03/29 03:37:28;;;;;;;;;;;;;;;-0.06;100.00;100724.97;5135855;27;20355;-64
2023/03/29 03:39:53;;;;;;;;;;;;;;;-0.04;100.00;100727.50;5154190;27;19960;-64
2023/03/29 03:42:19;;;;;;;;;;;;;;;-0.06;100.00;100708.44;5154031;27;20010;-64
2023/03/29 03:44:44;;;;;;;;;;;;;;;-0.08;100.00;100707.69;5135506;27;19915;-64
2023/03/29 03:47:09;;;;;;;;;;;;;;;-0.10;100.00;100714.81;5154244;27;19922;-64
2023/03/29 03:49:35;;;;;;;;;;;;;;;-0.14;100.00;100721.16;5135817;27;19911;-64
2023/03/29 03:52:00;;;;;;;;;;;;;;;-0.18;100.00;100714.44;5154015;27;20365;-66
2023/03/29 03:54:26;;;;;;;;;;;;;;;-0.17;100.00;100716.13;5154010;27;20063;-65
2023/03/29 03:56:51;;;;;;;;;;;;;;;-0.15;100.00;100715.09;5136828;27;19918;-66
2023/03/29 03:59:17;;;;;;;;;;;;;;;-0.08;100.00;100720.78;5158371;27;19911;-65
2023/03/29 04:01:42;;;;;;;;;;;;;;;-0.06;100.00;100718.91;5139962;27;19921;-65
2023/03/29 04:04:09;;;;;;;;;;;;;;;-0.16;100.00;100718.66;5140516;27;19933;-64
2023/03/29 04:06:34;;;;;;;;;;;;;;;-0.16;100.00;100712.56;5158697;27;19934;-65
2023/03/29 04:08:59;;;;;;;;;;;;;;;-0.13;100.00;100709.75;5140274;27;20364;-64
2023/03/29 04:11:25;;;;;;;;;;;;;;;-0.18;100.00;100712.66;5158768;27;19973;-65
2023/03/29 04:13:50;;;;;;;;;;;;;;;-0.22;100.00;100713.81;5158587;27;19915;-63
2023/03/29 04:16:15;;;;;;;;;;;;;;;-0.24;100.00;100726.16;5158128;27;19919;-64
2023/03/29 04:18:41;;;;;;;;;;;;;;;-0.25;100.00;100713.16;5158469;27;19919;-65
2023/03/29 04:21:06;;;;;;;;;;;;;;;-0.20;100.00;100721.56;5139984;27;20254;-67
2023/03/29 04:23:31;;;;;;;;;;;;;;;-0.24;100.00;100717.44;5158557;27;19911;-64
2023/03/29 04:25:58;;;;;;;;;;;;;;;-0.29;100.00;100711.63;5157999;27;19918;-67
2023/03/29 04:28:23;;;;;;;;;;;;;;;-0.25;100.00;100726.25;5157937;27;19911;-65
2023/03/29 04:30:49;;;;;;;;;;;;;;;-0.32;100.00;100716.13;5139122;27;19918;-66
2023/03/29 04:33:14;;;;;;;;;;;;;;;-0.35;100.00;100715.47;5157322;27;19919;-67
2023/03/29 04:35:40;;;;;;;;;;;;;;;-0.34;100.00;100710.16;5157443;27;19919;-64
2023/03/29 04:38:08;;;;;;;;;;;;;;;-0.36;100.00;100712.03;5157749;27;20405;-64
2023/03/29 04:40:34;;;;;;;;;;;;;;;-0.31;100.00;100715.19;5138876;27;19965;-64
2023/03/29 04:42:59;;;;;;;;;;;;;;;-0.23;100.00;100704.28;5139017;27;20413;-67
2023/03/29 04:45:25;;;;;;;;;;;;;;;-0.24;100.00;100722.69;5158297;27;19956;-65
2023/03/29 04:47:52;;;;;;;;;;;;;;;-0.26;100.00;100711.47;5157410;27;19923;-65
2023/03/29 04:50:18;;;;;;;;;;;;;;;-0.22;100.00;100723.44;5157386;27;19917;-66
2023/03/29 04:52:44;;;;;;;;;;;;;;;-0.10;100.00;100730.50;5156967;27;19910;-66
2023/03/29 04:55:09;;;;;;;;;;;;;;;-0.06;100.00;100732.00;5157033;27;19917;-64
2023/03/29 04:57:34;;;;;;;;;;;;;;;-0.05;100.00;100734.53;5156848;27;19911;-65
2023/03/29 05:00:00;;;;;;;;;;;;;;;0.04;100.00;100740.97;5156831;27;19915;-65
2023/03/29 05:02:26;;;;;;;;;;;;;;;0.10;100.00;100732.72;5138611;27;19967;-65
2023/03/29 05:04:51;;;;;;;;;;;;;;;0.18;100.00;100727.84;5138397;27;20447;-65
2023/03/29 05:07:17;;;;;;;;;;;;;;;0.13;100.00;100727.31;5157165;27;19922;-63
2023/03/29 05:09:42;;;;;;;;;;;;;;;0.08;100.00;100732.00;5156202;27;19918;-63
2023/03/29 05:12:07;;;;;;;;;;;;;;;0.04;100.00;100730.50;5156827;27;19918;-64
2023/03/29 05:14:33;;;;;;;;;;;;;;;0.07;100.00;100732.94;5156716;27;19943;-64
2023/03/29 05:16:58;;;;;;;;;;;;;;;0.09;100.00;100733.66;5156481;27;19911;-65
2023/03/29 05:19:24;;;;;;;;;;;;;;;0.02;100.00;100735.00;5156861;27;20385;-67
2023/03/29 05:21:49;;;;;;;;;;;;;;;0.04;100.00;100724.44;5157164;27;20251;-64
2023/03/29 05:24:16;;;;;;;;;;;;;;;0.04;100.00;100724.44;5157682;27;19969;-66
2023/03/29 05:26:41;;;;;;;;;;;;;;;0.03;100.00;100722.75;5136298;27;19911;-65
2023/03/29 05:29:07;;;;;;;;;;;;;;;-0.05;100.00;100728.44;5145810;27;19911;-65
2023/03/29 05:31:33;;;;;;;;;;;;;;;-0.04;100.00;100727.50;5117106;27;19912;-66
2023/03/29 05:33:58;;;;;;;;;;;;;;;-0.04;100.00;100738.81;5135610;27;20473;-67
2023/03/29 05:36:24;;;;;;;;;;;;;;;0.07;100.00;100729.47;5135657;27;19920;-68
2023/03/29 05:38:49;;;;;;;;;;;;;;;0.11;100.00;100736.19;5135882;27;19912;-66
2023/03/29 05:41:15;;;;;;;;;;;;;;;0.16;100.00;100745.44;5135393;27;19915;-66
2023/03/29 05:43:40;;;;;;;;;;;;;;;0.17;100.00;100757.59;5135514;27;20363;-67
2023/03/29 05:46:06;;;;;;;;;;;;;;;0.26;100.00;100767.47;5135343;27;20006;-66
2023/03/29 05:48:32;;;;;;;;;;;;;;;0.24;100.00;100769.34;5135375;27;19911;-66
2023/03/29 05:50:57;;;;;;;;;;;;;;;0.25;100.00;100770.19;5134886;27;19912;-67
2023/03/29 05:53:24;;;;;;;;;;;;;;;0.24;100.00;100777.22;5135533;27;19946;-66
2023/03/29 05:55:50;;;;;;;;;;;;;;;0.27;100.00;100779.63;5100005;27;20235;-66
2023/03/29 05:58:19;;;;;;;;;;;;;;;0.30;100.00;100779.47;5135154;27;19935;-65
2023/03/29 06:00:45;;;;;;;;;;;;;;;0.37;100.00;100779.09;5116413;27;19966;-68
2023/03/29 06:03:18;;;;;;;;;;;;;;;0.37;100.00;100776.47;5116908;27;20323;-65
2023/03/29 06:05:48;;;;;;;;;;;;;;;0.37;100.00;100773.84;5135067;27;19912;-64
2023/03/29 06:08:14;;;;;;;;;;;;;;;0.40;100.00;100766.63;5134954;27;19972;-65
2023/03/29 06:10:40;;;;;;;;;;;;;;;0.41;100.00;100767.47;5134956;27;19911;-65
2023/03/29 06:13:05;;;;;;;;;;;;;;;0.41;100.00;100764.84;5134912;27;20259;-65
2023/03/29 06:15:31;;;;;;;;;;;;;;;0.46;100.00;100762.75;5134649;27;19942;-64
2023/03/29 06:17:57;;;;;;;;;;;;;;;0.50;100.00;100759.00;5134708;27;19912;-66
2023/03/29 06:20:22;;;;;;;;;;;;;;;0.52;100.00;100768.44;5133692;27;19936;-66
2023/03/29 06:22:47;;;;;;;;;;;;;;;0.53;100.00;100769.28;5134466;27;20386;-65
2023/03/29 06:25:14;;;;;;;;;;;;;;;0.61;100.00;100769.66;5134804;27;19911;-65
2023/03/29 06:27:39;;;;;;;;;;;;;;;0.66;100.00;100774.59;5134538;27;19912;-64
2023/03/29 06:30:05;;;;;;;;;;;;;;;0.63;100.00;100775.66;5134666;27;19912;-65
2023/03/29 06:32:32;;;;;;;;;;;;;;;0.66;100.00;100770.19;5116158;27;19916;-65
2023/03/29 06:34:57;;;;;;;;;;;;;;;0.71;100.00;100781.22;5134920;27;19911;-64
2023/03/29 06:37:22;;;;;;;;;;;;;;;0.76;100.00;100778.28;5134633;27;20285;-66
2023/03/29 06:39:52;;;;;;;;;;;;;;;0.79;100.00;100776.31;5134402;27;19915;-69
2023/03/29 06:42:21;;;;;;;;;;;;;;;0.91;100.00;100780.78;5136980;27;20083;-68
2023/03/29 06:44:47;;;;;;;;;;;;;;;1.01;100.00;100783.63;5134590;27;19922;-68
2023/03/29 06:47:13;;;;;;;;;;;;;;;1.15;100.00;100787.94;5134302;27;19911;-67
2023/03/29 06:49:38;;;;;;;;;;;;;;;1.28;100.00;100783.59;5134471;27;19911;-70
2023/03/29 06:52:04;;;;;;;;;;;;;;;1.41;100.00;100787.03;5134451;27;19918;-73
2023/03/29 06:54:29;;;;;;;;;;;;;;;1.44;100.00;100784.22;5134126;27;19938;-70
2023/03/29 06:56:56;;;;;;;;;;;;;;;1.28;100.00;100773.09;5134255;27;20386;-72
2023/03/29 06:59:21;;;;;;;;;;;;;;;1.15;99.34;100766.97;5133997;27;19911;-70
2023/03/29 07:01:46;;;;;;;;;;;;;;;1.07;100.00;100764.00;5131478;27;20351;-71
2023/03/29 07:04:37;;;;;;;;;;;;;;;1.20;100.00;100763.13;5113726;28;19961;-70
2023/03/29 07:07:04;;;;;;;;;;;;;;;1.35;100.00;100763.84;5113434;28;19915;-73
2023/03/29 07:09:30;;;;;;;;;;;;;;;1.53;99.45;100767.03;5078350;28;19965;-66
2023/03/29 07:11:57;;;;;;;;;;;;;;;1.62;98.67;100768.16;5111990;28;19912;-64
2023/03/29 07:14:25;;;;;;;;;;;;;;;1.63;99.45;100767.22;5113449;28;19911;-68
2023/03/29 07:16:51;;;;;;;;;;;;;;;1.69;98.74;100766.78;5113260;28;19916;-65
2023/03/29 07:19:16;;;;;;;;;;;;;;;1.64;98.92;100768.91;5116198;27;19968;-66
2023/03/29 07:21:42;;;;;;;;;;;;;;;1.32;98.44;100774.56;5133390;27;19916;-67
2023/03/29 07:24:07;;;;;;;;;;;;;;;1.29;99.60;100787.88;5133425;27;19973;-67
2023/03/29 07:26:32;;;;;;;;;;;;;;;1.26;99.93;100795.97;5133851;27;19960;-66
2023/03/29 07:28:59;;;;;;;;;;;;;;;1.32;100.00;100813.06;5133548;27;19912;-67
2023/03/29 07:31:24;;;;;;;;;;;;;;;1.40;100.00;100821.25;5133260;27;19912;-65
2023/03/29 07:37:11;;;;;;;;;;;;;;;1.29;100.00;100826.41;5133439;27;20317;-67
2023/03/29 07:39:36;;;;;;;;;;;;;;;1.28;99.97;100829.97;5133409;27;19924;-66
2023/03/29 07:42:03;;;;;;;;;;;;;;;1.23;99.61;100823.25;5132381;27;20232;-67
2023/03/29 07:44:31;;;;;;;;;;;;;;;1.20;100.00;100820.81;5133045;27;20384;-66
2023/03/29 07:46:58;;;;;;;;;;;;;;;1.09;100.00;100797.06;5133313;28;19915;-65
2023/03/29 07:49:24;;;;;;;;;;;;;;;1.14;100.00;100805.47;5132976;28;20041;-65
2023/03/29 07:51:49;;;;;;;;;;;;;;;1.12;100.00;100806.50;5133741;28;20370;-68
2023/03/29 07:54:15;;;;;;;;;;;;;;;1.01;99.71;100809.00;5133426;28;19918;-68
2023/03/29 07:56:41;;;;;;;;;;;;;;;1.03;100.00;100820.25;5133523;28;19993;-65
2023/03/29 07:59:06;;;;;;;;;;;;;;;1.23;100.00;100811.91;5114932;28;19919;-67
2023/03/29 08:01:31;;;;;;;;;;;;;;;1.44;100.00;100805.22;5132470;28;19919;-67
2023/03/29 08:03:57;;;;;;;;;;;;;;;1.57;100.00;100810.50;5133476;28;19919;-67
2023/03/29 08:06:25;;;;;;;;;;;;;;;1.50;100.00;100807.44;5133225;28;19927;-67
2023/03/29 08:08:51;;;;;;;;;;;;;;;1.45;99.61;100806.06;5114940;28;19923;-66
2023/03/29 08:11:16;;;;;;;;;;;;;;;1.37;99.95;100809.19;5133261;28;19912;-68
2023/03/29 08:13:42;;;;;;;;;;;;;;;1.29;100.00;100808.88;5133288;28;19912;-67
2023/03/29 08:16:07;;;;;;;;;;;;;;;1.37;100.00;100811.81;5133150;28;20286;-67
2023/03/29 08:18:33;;;;;;;;;;;;;;;1.53;100.00;100815.09;5133443;28;20278;-67
2023/03/29 08:20:58;;;;;;;;;;;;;;;1.62;100.00;100807.53;5133109;28;19956;-64
2023/03/29 08:23:24;;;;;;;;;;;;;;;1.78;99.54;100810.81;5132881;28;19977;-67
2023/03/29 08:25:49;;;;;;;;;;;;;;;1.77;97.02;100806.50;5133061;28;19984;-67
2023/03/29 08:28:15;;;;;;;;;;;;;;;1.71;96.90;100807.75;5132924;28;19911;-67
2023/03/29 08:30:40;;;;;;;;;;;;;;;1.53;98.66;100801.97;5132741;28;19922;-68
2023/03/29 08:33:06;;;;;;;;;;;;;;;1.60;98.45;100804.19;5132949;28;20010;-65
2023/03/29 08:35:31;;;;;;;;;;;;;;;1.69;98.95;100811.44;5115528;28;19911;-64
2023/03/29 08:37:57;;;;;;;;;;;;;;;1.60;98.88;100819.94;5133503;28;20377;-65
2023/03/29 08:40:25;;;;;;;;;;;;;;;1.49;97.73;100826.75;5132962;28;19922;-65
2023/03/29 08:43:16;;;;;;;;;;;;;;;1.38;98.39;100824.00;5115572;28;20390;-66
2023/03/29 08:45:48;;;;;;;;;;;;;;;1.34;99.05;100822.53;5136154;27;19912;-66
2023/03/29 08:48:19;;;;;;;;;;;;;;;1.30;98.91;100823.66;5139029;27;20014;-64
2023/03/29 08:50:49;;;;;;;;;;;;;;;1.09;98.62;100817.22;5139723;27;19936;-66
2023/03/29 08:53:38;;;;;;;;;;;;;;;1.01;97.71;100822.13;5138890;27;19932;-67
2023/03/29 08:56:07;;;;;;;;;;;;;;;1.07;98.43;100821.72;5129286;27;19918;-65
2023/03/29 08:58:33;;;;;;;;;;;;;;;1.06;99.29;100830.53;5137216;27;19911;-65
2023/03/29 09:01:00;;;;;;;;;;;;;;;1.18;98.83;100840.22;5117959;27;19911;-68
2023/03/29 09:03:46;;;;;;;;;;;;;;;1.29;98.91;100848.22;5136468;27;19919;-66
2023/03/29 09:06:12;;;;;;;;;;;;;;;1.54;98.05;100845.66;5136825;27;19934;-68
2023/03/29 09:08:40;;;;;;;;;;;;;;;1.74;97.50;100848.75;5118065;27;20355;-67
2023/03/29 09:11:13;;;;;;;;;;;;;;;1.63;95.99;100846.81;5136324;27;20366;-67
2023/03/29 09:13:51;;;;;;;;;;;;;;;1.64;96.89;100848.50;5136236;27;19911;-67
2023/03/29 09:16:16;;;;;;;;;;;;;;;1.71;97.43;100844.50;5136203;27;19918;-66
2023/03/29 09:18:50;;;;;;;;;;;;;;;1.68;97.99;100851.75;5136033;27;19911;-66
2023/03/29 09:21:36;;;;;;;;;;;;;;;1.54;98.48;100848.28;5136191;27;19911;-65
2023/03/29 09:24:12;;;;;;;;;;;;;;;1.49;97.53;100839.03;5135726;27;19919;-67
2023/03/29 09:26:47;;;;;;;;;;;;;;;1.37;98.22;100831.97;5135989;27;19917;-66
2023/03/29 09:29:28;;;;;;;;;;;;;;;1.29;98.56;100827.25;5117408;27;19911;-65
2023/03/29 09:31:55;;;;;;;;;;;;;;;1.16;99.67;100827.22;5117661;27;19919;-65
2023/03/29 09:34:35;;;;;;;;;;;;;;;1.08;100.00;100826.03;5135674;27;19915;-66
2023/03/29 09:37:08;;;;;;;;;;;;;;;1.05;100.00;100823.59;5135793;27;20021;-66
2023/03/29 09:39:36;;;;;;;;;;;;;;;0.93;100.00;100814.75;5135224;27;19970;-66
2023/03/29 09:42:04;;;;;;;;;;;;;;;0.81;100.00;100813.75;5135423;27;20320;-65
2023/03/29 09:44:32;;;;;;;;;;;;;;;0.76;100.00;100791.41;5135316;27;19911;-67
2023/03/29 09:47:04;;;;;;;;;;;;;;;0.72;100.00;100780.28;5117112;27;20247;-65
2023/03/29 09:49:33;;;;;;;;;;;;;;;0.81;100.00;100778.84;5136070;27;20355;-66
2023/03/29 09:52:02;;;;;;;;;;;;;;;0.74;100.00;100772.31;5135433;27;20427;-67
2023/03/29 09:54:27;;;;;;;;;;;;;;;0.72;100.00;100769.78;5135513;27;19959;-66
2023/03/29 09:56:53;;;;;;;;;;;;;;;0.85;100.00;100768.03;5136085;27;19918;-66
2023/03/29 09:59:18;;;;;;;;;;;;;;;1.09;100.00;100770.00;5135429;27;19912;-66
2023/03/29 10:01:44;;;;;;;;;;;;;;;1.23;100.00;100788.28;5135397;27;19915;-67
2023/03/29 10:04:10;;;;;;;;;;;;;;;1.32;100.00;100784.22;5135244;27;19941;-67
2023/03/29 10:06:36;;;;;;;;;;;;;;;1.35;100.00;100782.22;5117161;27;19957;-65
2023/03/29 10:09:03;;;;;;;;;;;;;;;1.23;99.40;100768.16;5135475;27;19922;-66
2023/03/29 10:11:29;;;;;;;;;;;;;;;1.06;98.18;100773.66;5135201;27;19912;-66
2023/03/29 10:13:59;;;;;;;;;;;;;;;1.01;98.56;100788.03;5135048;27;19918;-65
2023/03/29 10:16:29;;;;;;;;;;;;;;;0.91;98.88;100807.00;5134713;27;19934;-67
2023/03/29 10:18:54;;;;;;;;;;;;;;;0.81;99.26;100811.13;5134732;27;19912;-65
2023/03/29 10:21:20;;;;;;;;;;;;;;;0.87;98.94;100809.91;5134511;27;19918;-66
2023/03/29 10:23:46;;;;;;;;;;;;;;;0.76;99.21;100802.72;5134733;27;19912;-66
2023/03/29 10:26:23;;;;;;;;;;;;;;;0.92;99.18;100802.59;5134718;27;19911;-67
2023/03/29 10:28:52;;;;;;;;;;;;;;;1.00;99.62;100808.16;5134914;27;20001;-66
2023/03/29 10:31:19;;;;;;;;;;;;;;;0.90;97.94;100799.22;5134338;27;19911;-66
2023/03/29 10:33:49;;;;;;;;;;;;;;;0.75;98.93;100801.06;5134466;27;19918;-67
2023/03/29 10:36:15;;;;;;;;;;;;;;;0.71;98.80;100794.31;5134861;27;19911;-65
2023/03/29 10:38:40;;;;;;;;;;;;;;;0.83;99.34;100806.63;5134439;27;19915;-65
2023/03/29 10:41:08;;;;;;;;;;;;;;;0.92;99.22;100807.84;5134074;27;19965;-65
2023/03/29 10:43:45;;;;;;;;;;;;;;;1.02;99.34;100802.81;5134509;27;19916;-65
2023/03/29 10:46:21;;;;;;;;;;;;;;;1.00;99.42;100802.94;5134151;27;19920;-68
2023/03/29 10:48:51;;;;;;;;;;;;;;;0.97;99.38;100807.53;5134214;27;20252;-65
2023/03/29 10:51:17;;;;;;;;;;;;;;;0.88;99.02;100812.44;5134452;27;20330;-66
2023/03/29 10:53:42;;;;;;;;;;;;;;;0.71;99.65;100814.47;5134613;27;19916;-65
2023/03/29 10:56:08;;;;;;;;;;;;;;;0.65;100.00;100817.47;5134447;27;20287;-65
2023/03/29 10:58:39;;;;;;;;;;;;;;;0.63;100.00;100817.56;5115823;27;20273;-66
2023/03/29 11:01:10;;;;;;;;;;;;;;;0.53;100.00;100821.69;5134394;27;19911;-65
2023/03/29 11:03:39;;;;;;;;;;;;;;;0.44;100.00;100822.28;5133989;27;19918;-66
2023/03/29 11:06:04;;;;;;;;;;;;;;;0.46;100.00;100826.50;5133538;27;19912;-68
2023/03/29 11:08:43;;;;;;;;;;;;;;;0.49;100.00;100833.31;5133862;27;20331;-66
2023/03/29 11:11:22;;;;;;;;;;;;;;;0.43;100.00;100846.81;5133668;27;19941;-66
2023/03/29 11:13:58;;;;;;;;;;;;;;;0.36;100.00;100850.75;5133928;27;20316;-65
2023/03/29 11:16:38;;;;;;;;;;;;;;;0.40;100.00;100878.44;5134046;27;19918;-66
2023/03/29 11:19:09;;;;;;;;;;;;;;;0.38;100.00;100893.41;5133561;27;19911;-67
2023/03/29 11:21:48;;;;;;;;;;;;;;;0.44;100.00;100908.75;5133582;27;19920;-67
2023/03/29 11:24:14;;;;;;;;;;;;;;;0.46;100.00;100917.34;5133977;27;19912;-66
2023/03/29 11:26:48;;;;;;;;;;;;;;;0.36;100.00;100929.34;5133728;27;20337;-66
2023/03/29 11:29:28;;;;;;;;;;;;;;;0.33;100.00;100929.53;5133721;27;19911;-66
2023/03/29 11:31:56;;;;;;;;;;;;;;;0.39;100.00;100924.75;5134213;27;19918;-65
2023/03/29 11:34:48;;;;;;;;;;;;;;;0.44;100.00;100921.84;5133814;27;19912;-66
2023/03/29 11:37:16;;;;;;;;;;;;;;;0.52;100.00;100919.59;5130204;27;19934;-66
2023/03/29 11:39:58;;;;;;;;;;;;;;;0.58;100.00;100924.47;5133332;27;20282;-66
2023/03/29 11:42:28;;;;;;;;;;;;;;;0.43;100.00;100921.00;5113881;28;19916;-65
2023/03/29 11:44:56;;;;;;;;;;;;;;;0.39;100.00;100921.28;5133373;27;19919;-65
2023/03/29 11:47:25;;;;;;;;;;;;;;;0.18;100.00;100932.13;5133554;27;19915;-65
2023/03/29 11:49:56;;;;;;;;;;;;;;;0.21;100.00;100926.69;5133453;28;20360;-67
2023/03/29 11:52:28;;;;;;;;;;;;;;;0.26;100.00;100919.41;5133598;28;19916;-66
2023/03/29 11:55:02;;;;;;;;;;;;;;;0.26;100.00;100918.56;5133234;28;19911;-66
2023/03/29 11:57:30;;;;;;;;;;;;;;;0.17;100.00;100919.97;5133338;28;19911;-66
2023/03/29 12:00:14;;;;;;;;;;;;;;;0.05;100.00;100918.09;5133526;28;19918;-67
2023/03/29 12:02:58;;;;;;;;;;;;;;;0.12;100.00;100921.19;5133890;28;19951;-66
2023/03/29 12:05:30;;;;;;;;;;;;;;;0.09;100.00;100926.63;5133094;28;19911;-65
2023/03/29 12:08:00;;;;;;;;;;;;;;;0.09;100.00;100914.34;5098099;28;19911;-67
2023/03/29 12:10:30;;;;;;;;;;;;;;;0.17;100.00;100911.28;5133306;28;19911;-68
2023/03/29 12:13:04;;;;;;;;;;;;;;;0.15;100.00;100910.53;5133029;28;19943;-66
2023/03/29 12:15:36;;;;;;;;;;;;;;;0.22;100.00;100912.66;5114768;28;19969;-66
2023/03/29 12:18:23;;;;;;;;;;;;;;;0.14;100.00;100912.31;5134490;27;19911;-66
2023/03/29 12:20:58;;;;;;;;;;;;;;;0.13;100.00;100901.91;5118691;27;19918;-68
2023/03/29 12:23:24;;;;;;;;;;;;;;;0.03;100.00;100896.41;5137105;27;19911;-67
2023/03/29 12:26:07;;;;;;;;;;;;;;;0.04;100.00;100900.72;5136948;27;20247;-66
2023/03/29 12:28:51;;;;;;;;;;;;;;;0.01;100.00;100898.28;5136922;27;19911;-68
2023/03/29 12:31:30;;;;;;;;;;;;;;;0.10;100.00;100895.09;5137124;27;19911;-66
2023/03/29 12:34:01;;;;;;;;;;;;;;;0.15;100.00;100879.09;5136992;27;19918;-67
2023/03/29 12:36:35;;;;;;;;;;;;;;;0.29;100.00;100882.56;5137121;27;20009;-66
2023/03/29 12:39:01;;;;;;;;;;;;;;;0.17;100.00;100879.84;5136782;27;19949;-66
2023/03/29 12:41:34;;;;;;;;;;;;;;;0.12;100.00;100893.22;5136514;27;20359;-66
2023/03/29 12:44:00;;;;;;;;;;;;;;;0.06;100.00;100898.00;5136929;27;19968;-65
2023/03/29 12:46:30;;;;;;;;;;;;;;;0.05;100.00;100896.31;5136809;27;20367;-67